Time;durP1;ratioP1;P1;durP2;ratioP2;P2;SDS_P1;SDS_P2;PMS_P1;PMS_P2;Temp;Humidity;BMP_temperature;BMP_pressure;BME280_temperature;BME280_humidity;BME280_pressure;Samples;Min_cycle;Max_cycle;Signal;HPM_P1;HPM_P2
2022/11/07 06:01:04;;;;;;;24.90;16.58;;;15.50;99.90;;;;;;4590004;19;20044;-34
2022/11/07 06:04:25;;;;;;;21.13;16.65;;;15.60;99.90;;;;;;4590381;19;20027;-39
2022/11/07 06:05:56;;;;;;;22.40;18.05;;;15.50;99.90;;;;;;4590562;19;20357;-37
2022/11/07 06:07:27;;;;;;;;;;;15.50;99.90;;;;;;4592653;19;20038;-38
2022/11/07 06:08:58;;;;;;;22.20;16.88;;;15.60;99.90;;;;;;4590742;19;19952;-35
2022/11/07 06:10:29;;;;;;;23.80;17.27;;;15.60;99.90;;;;;;4590495;19;20003;-36
2022/11/07 06:12:02;;;;;;;20.13;16.08;;;15.60;99.90;;;;;;4590340;19;20010;-40
2022/11/07 06:13:34;;;;;;;22.85;17.00;;;15.60;99.90;;;;;;4590518;19;20019;-34
2022/11/07 06:15:06;;;;;;;22.42;17.08;;;15.60;99.90;;;;;;4591007;19;19998;-41
2022/11/07 06:16:38;;;;;;;21.67;16.75;;;15.60;99.90;;;;;;4590707;19;20002;-37
2022/11/07 06:18:14;;;;;;;22.27;16.83;;;15.60;99.90;;;;;;4589209;19;20468;-39
2022/11/07 06:19:46;;;;;;;22.27;16.65;;;15.60;99.90;;;;;;4589917;19;20467;-35
2022/11/07 06:21:17;;;;;;;22.33;17.25;;;15.70;99.90;;;;;;4590355;19;20052;-34
2022/11/07 06:22:48;;;;;;;22.10;16.50;;;15.70;99.90;;;;;;4591102;19;20004;-36
2022/11/07 06:24:20;;;;;;;24.58;18.23;;;15.80;99.90;;;;;;4590245;19;20011;-39
2022/11/07 06:25:51;;;;;;;23.58;17.73;;;15.80;99.90;;;;;;4590803;19;20010;-39
2022/11/07 06:27:22;;;;;;;24.05;18.65;;;15.80;99.90;;;;;;4589510;19;20035;-36
2022/11/07 06:28:53;;;;;;;22.10;17.92;;;15.80;99.90;;;;;;4590295;19;20029;-35
2022/11/07 06:30:26;;;;;;;25.75;18.30;;;15.80;99.90;;;;;;4589966;19;20422;-35
2022/11/07 06:31:59;;;;;;;22.92;17.65;;;15.80;99.90;;;;;;4590173;19;20046;-39
2022/11/07 06:33:30;;;;;;;23.23;16.85;;;15.80;99.90;;;;;;4590541;19;20006;-35
2022/11/07 06:35:01;;;;;;;24.83;17.58;;;15.80;99.90;;;;;;4587618;19;20034;-34
2022/11/07 06:36:33;;;;;;;24.00;16.75;;;15.80;99.90;;;;;;4588409;19;20015;-36
2022/11/07 06:38:05;;;;;;;22.50;17.30;;;15.80;99.90;;;;;;4590136;19;20022;-37
2022/11/07 06:39:37;;;;;;;23.55;17.30;;;15.80;99.90;;;;;;4590573;19;20019;-41
2022/11/07 06:41:09;;;;;;;23.55;17.70;;;15.80;99.90;;;;;;4590059;19;20017;-36
2022/11/07 06:42:41;;;;;;;23.08;18.70;;;15.80;99.90;;;;;;4588732;19;20023;-34
2022/11/07 06:44:14;;;;;;;23.17;19.00;;;14.70;99.90;;;;;;4589268;19;20006;-34
2022/11/07 06:45:46;;;;;;;23.95;19.80;;;13.30;99.90;;;;;;4590980;19;20018;-34
2022/11/07 06:47:18;;;;;;;27.47;20.60;;;12.60;99.90;;;;;;4594575;19;20014;-40
2022/11/07 06:48:50;;;;;;;26.00;20.30;;;12.30;99.90;;;;;;4594719;19;20021;-40
2022/11/07 06:50:21;;;;;;;25.08;19.90;;;12.10;99.90;;;;;;4595013;19;20020;-34
2022/11/07 06:51:52;;;;;;;27.23;20.15;;;12.10;99.90;;;;;;4595438;19;20002;-36
2022/11/07 06:53:23;;;;;;;27.77;20.27;;;12.00;99.90;;;;;;4594533;19;20018;-42
2022/11/07 06:54:56;;;;;;;28.13;20.40;;;12.00;99.90;;;;;;4591543;19;20021;-33
2022/11/07 06:56:27;;;;;;;25.63;20.95;;;12.00;99.90;;;;;;4594470;19;20421;-36
2022/11/07 06:57:59;;;;;;;26.88;21.38;;;12.00;99.90;;;;;;4593346;19;20011;-36
2022/11/07 06:59:31;;;;;;;27.73;20.73;;;11.90;99.90;;;;;;4592625;19;20014;-35
2022/11/07 07:09:51;;;;;;;27.27;21.37;;;11.90;99.90;;;;;;4594068;19;20413;-34
2022/11/07 07:11:23;;;;;;;29.07;22.20;;;11.90;99.90;;;;;;4593849;19;20471;-33
2022/11/07 07:12:55;;;;;;;28.05;21.70;;;11.90;99.90;;;;;;4594663;19;20783;-31
2022/11/07 07:14:27;;;;;;;27.17;21.33;;;11.80;99.90;;;;;;4592795;19;20013;-33
2022/11/07 07:16:13;;;;;;;27.07;20.97;;;11.80;99.90;;;;;;4594099;19;20716;-36
2022/11/07 07:17:45;;;;;;;30.40;22.20;;;11.80;99.90;;;;;;4593793;19;20477;-34
2022/11/07 07:19:16;;;;;;;29.42;22.85;;;11.80;99.90;;;;;;4593898;19;20481;-35
2022/11/07 07:20:49;;;;;;;34.13;23.43;;;11.80;99.90;;;;;;4593652;19;20014;-35
2022/11/07 07:22:20;;;;;;;27.90;21.52;;;11.80;99.90;;;;;;4594322;19;20421;-33
2022/11/07 07:23:53;;;;;;;30.37;22.67;;;11.80;99.90;;;;;;4594265;19;20099;-35
2022/11/07 07:25:24;;;;;;;27.52;20.73;;;11.70;99.90;;;;;;4592925;19;20428;-34
2022/11/07 07:26:56;;;;;;;27.57;21.73;;;11.70;99.90;;;;;;4593737;19;20466;-35
2022/11/07 07:28:27;;;;;;;28.80;21.65;;;11.70;99.90;;;;;;4593904;19;20459;-34
2022/11/07 07:29:59;;;;;;;30.88;22.13;;;11.70;99.90;;;;;;4594178;19;20023;-33
2022/11/07 07:31:30;;;;;;;28.50;22.35;;;11.70;99.90;;;;;;4593950;19;20352;-35
2022/11/07 07:33:01;;;;;;;26.75;21.75;;;11.70;99.90;;;;;;4593673;19;20037;-36
2022/11/07 07:34:32;;;;;;;30.17;22.17;;;11.70;99.90;;;;;;4591317;19;20040;-35
2022/11/07 07:36:04;;;;;;;30.08;22.25;;;11.70;99.90;;;;;;4592448;19;20349;-34
2022/11/07 07:37:35;;;;;;;;;;;11.70;99.90;;;;;;4594264;19;20014;-35
2022/11/07 07:39:07;;;;;;;26.33;19.45;;;11.70;99.90;;;;;;4593230;19;19937;-36
2022/11/07 07:40:38;;;;;;;26.45;20.10;;;11.70;99.90;;;;;;4593998;19;20466;-36
2022/11/07 07:42:10;;;;;;;26.27;19.50;;;11.70;99.90;;;;;;4593654;19;20018;-36
2022/11/07 07:43:43;;;;;;;25.27;20.47;;;11.70;99.90;;;;;;4593284;19;20453;-35
2022/11/07 07:45:15;;;;;;;27.10;20.05;;;11.60;99.90;;;;;;4593727;19;20462;-36
2022/11/07 07:46:46;;;;;;;24.60;19.13;;;11.70;99.90;;;;;;4593544;19;20019;-31
2022/11/07 07:48:17;;;;;;;26.92;20.42;;;11.70;99.90;;;;;;4593969;19;20006;-34
2022/11/07 07:49:48;;;;;;;36.22;25.40;;;11.70;99.90;;;;;;4593246;19;20017;-33
2022/11/07 07:51:20;;;;;;;29.73;22.30;;;11.70;99.90;;;;;;4593780;19;20013;-37
2022/11/07 07:52:56;;;;;;;27.67;21.57;;;11.80;99.90;;;;;;4593319;19;20429;-33
2022/11/07 07:54:27;;;;;;;29.60;20.77;;;11.70;99.90;;;;;;4592442;19;20472;-33
2022/11/07 07:55:59;;;;;;;24.83;20.00;;;11.80;99.90;;;;;;4593235;19;21111;-32
2022/11/07 07:57:30;;;;;;;29.60;21.58;;;11.70;99.90;;;;;;4591617;19;20441;-36
2022/11/07 07:59:02;;;;;;;26.13;20.47;;;11.70;99.90;;;;;;4592836;19;20019;-32
2022/11/07 08:00:33;;;;;;;24.63;18.88;;;11.70;99.90;;;;;;4593928;19;20415;-38
2022/11/07 08:02:09;;;;;;;27.27;18.90;;;11.70;99.90;;;;;;4593103;19;20006;-34
2022/11/07 08:03:40;;;;;;;25.07;20.00;;;11.70;99.90;;;;;;4591855;19;20449;-33
2022/11/07 08:05:13;;;;;;;25.10;20.77;;;11.70;99.90;;;;;;4591537;19;20972;-41
2022/11/07 08:06:44;;;;;;;27.05;21.40;;;11.70;99.90;;;;;;4590938;19;20528;-41
2022/11/07 08:08:15;;;;;;;23.88;17.77;;;11.80;99.90;;;;;;4591914;19;20021;-43
2022/11/07 08:09:47;;;;;;;23.13;17.25;;;12.30;99.90;;;;;;4591864;19;20018;-41
2022/11/07 08:12:53;;;;;;;22.00;17.40;;;13.20;99.90;;;;;;4591943;19;20038;-44
2022/11/07 08:14:25;;;;;;;20.63;16.43;;;13.50;99.90;;;;;;4592094;19;20025;-39
2022/11/07 08:15:56;;;;;;;21.10;16.67;;;13.80;99.90;;;;;;4593056;19;20043;-39
2022/11/07 08:17:28;;;;;;;19.50;14.77;;;14.00;99.90;;;;;;4592883;19;20010;-42
2022/11/07 08:18:59;;;;;;;22.50;15.65;;;14.10;99.90;;;;;;4594286;19;20034;-42
2022/11/07 08:20:30;;;;;;;23.15;16.92;;;14.20;99.90;;;;;;4595056;19;20022;-40
2022/11/07 08:22:01;;;;;;;22.50;16.48;;;14.30;99.90;;;;;;4593562;19;20468;-43
2022/11/07 08:23:33;;;;;;;20.08;15.45;;;14.40;99.90;;;;;;4594566;19;20011;-41
2022/11/07 08:25:06;;;;;;;26.37;17.30;;;14.50;99.90;;;;;;4593974;19;20475;-44
2022/11/07 08:26:37;;;;;;;29.77;18.73;;;14.50;99.90;;;;;;4591917;19;20041;-41
2022/11/07 08:28:09;;;;;;;26.08;18.02;;;14.60;99.90;;;;;;4591196;19;20022;-41
2022/11/07 08:29:41;;;;;;;22.20;17.70;;;14.60;99.90;;;;;;4591904;19;20485;-43
2022/11/07 08:31:13;;;;;;;24.13;16.73;;;14.70;99.90;;;;;;4592225;19;20010;-44
2022/11/07 08:32:47;;;;;;;23.13;16.80;;;14.70;99.90;;;;;;4591510;19;20372;-42
2022/11/07 08:34:18;;;;;;;;;;;14.70;99.90;;;;;;4592333;19;20021;-41
2022/11/07 08:35:49;;;;;;;22.08;15.55;;;14.80;99.90;;;;;;4591677;19;19919;-42
2022/11/07 08:37:21;;;;;;;22.10;15.07;;;14.90;99.90;;;;;;4592424;19;20021;-44
2022/11/07 08:38:52;;;;;;;24.15;16.85;;;14.90;99.90;;;;;;4592805;19;20019;-43
2022/11/07 08:40:25;;;;;;;27.40;17.00;;;14.90;99.90;;;;;;4591891;19;20014;-42
2022/11/07 08:41:56;;;;;;;25.00;16.30;;;14.90;99.90;;;;;;4592065;19;20014;-41
2022/11/07 08:43:28;;;;;;;20.25;15.48;;;14.90;99.90;;;;;;4592607;19;20020;-42
2022/11/07 08:44:59;;;;;;;21.42;15.68;;;15.00;99.90;;;;;;4591893;19;20019;-42
2022/11/07 08:46:30;;;;;;;20.25;15.43;;;15.00;99.90;;;;;;4592005;19;20032;-40
2022/11/07 08:48:02;;;;;;;23.50;16.60;;;15.00;99.90;;;;;;4592209;19;20082;-42
2022/11/07 08:49:35;;;;;;;18.63;15.07;;;15.00;99.90;;;;;;4592287;19;20349;-43
2022/11/07 08:51:08;;;;;;;20.80;15.93;;;15.10;99.90;;;;;;4592052;19;20015;-41
2022/11/07 08:52:39;;;;;;;19.67;15.45;;;15.10;99.90;;;;;;4591729;19;20022;-45
2022/11/07 08:54:11;;;;;;;22.30;16.90;;;15.10;99.90;;;;;;4591222;19;20511;-42
2022/11/07 08:55:43;;;;;;;21.05;15.85;;;15.10;99.90;;;;;;4592343;19;20022;-44
2022/11/07 08:57:14;;;;;;;21.38;16.63;;;15.10;99.90;;;;;;4592562;19;20003;-45
2022/11/07 08:58:47;;;;;;;20.60;15.55;;;15.20;99.90;;;;;;4591254;19;20482;-43
2022/11/07 09:00:18;;;;;;;20.35;14.73;;;15.30;99.90;;;;;;4592055;19;20006;-43
2022/11/07 09:01:49;;;;;;;20.65;15.02;;;15.40;99.90;;;;;;4591904;19;20046;-43
2022/11/07 09:03:23;;;;;;;20.27;15.38;;;15.50;99.90;;;;;;4590667;19;20018;-43
2022/11/07 09:04:54;;;;;;;19.30;15.57;;;15.50;99.90;;;;;;4591746;19;20015;-41
2022/11/07 09:06:26;;;;;;;19.33;15.65;;;15.60;99.90;;;;;;4591666;19;20422;-44
2022/11/07 09:07:57;;;;;;;21.40;16.30;;;15.70;99.90;;;;;;4590555;19;20010;-44
2022/11/07 09:09:28;;;;;;;20.80;16.42;;;15.70;99.90;;;;;;4591753;19;20027;-39
2022/11/07 09:11:03;;;;;;;20.08;15.60;;;15.70;99.90;;;;;;4590854;19;20017;-44
2022/11/07 09:14:17;;;;;;;20.35;15.55;;;15.80;99.90;;;;;;4590471;19;20013;-44
2022/11/07 09:15:49;;;;;;;22.08;16.52;;;15.70;99.90;;;;;;4591382;19;20365;-45
2022/11/07 09:17:21;;;;;;;23.52;17.27;;;15.80;99.90;;;;;;4591063;19;20070;-44
2022/11/07 09:18:52;;;;;;;;;;;15.70;99.90;;;;;;4591942;19;20011;-41
2022/11/07 09:20:23;;;;;;;24.77;17.38;;;15.70;99.90;;;;;;4591511;19;19928;-40
2022/11/07 09:21:56;;;;;;;22.52;17.25;;;15.70;99.90;;;;;;4592217;19;20039;-40
2022/11/07 09:23:27;;;;;;;21.77;16.67;;;15.70;99.90;;;;;;4592786;19;20098;-41
2022/11/07 09:24:58;;;;;;;20.17;16.13;;;15.70;99.90;;;;;;4591317;19;20011;-42
2022/11/07 09:26:29;;;;;;;22.70;17.52;;;15.70;99.90;;;;;;4590212;19;20010;-40
2022/11/07 09:28:03;;;;;;;20.67;16.30;;;15.70;99.90;;;;;;4588376;19;20028;-44
2022/11/07 09:29:35;;;;;;;23.58;17.58;;;15.70;99.90;;;;;;4589865;19;20096;-42
2022/11/07 09:31:06;;;;;;;23.05;17.77;;;15.70;99.90;;;;;;4591054;19;20018;-46
2022/11/07 09:32:37;;;;;;;20.65;16.13;;;15.70;99.90;;;;;;4591389;19;20178;-46
2022/11/07 09:34:09;;;;;;;24.50;17.63;;;15.70;99.90;;;;;;4589159;19;20381;-44
2022/11/07 09:35:40;;;;;;;22.50;16.30;;;15.70;99.90;;;;;;4588513;19;20010;-42
2022/11/07 09:37:11;;;;;;;22.20;16.92;;;15.70;99.90;;;;;;4589004;19;20390;-42
2022/11/07 09:38:43;;;;;;;21.42;16.60;;;15.70;99.90;;;;;;4588232;19;20010;-46
2022/11/07 09:40:39;;;;;;;22.73;17.02;;;15.70;99.90;;;;;;4588507;19;20015;-49
2022/11/07 09:42:21;;;;;;;21.10;16.38;;;15.60;99.90;;;;;;4588550;19;20044;-35
2022/11/07 09:46:25;;;;;;;24.40;16.58;;;15.70;99.90;;;;;;4585664;19;20011;-35
2022/11/07 09:47:59;;;;;;;24.55;16.67;;;15.70;99.90;;;;;;4586992;19;20011;-35
2022/11/07 09:49:39;;;;;;;22.50;17.17;;;15.70;99.90;;;;;;4586108;19;20021;-35
2022/11/07 09:51:29;;;;;;;20.27;15.73;;;15.80;99.90;;;;;;4586797;19;20019;-36
2022/11/07 09:53:05;;;;;;;21.23;15.90;;;15.80;99.90;;;;;;4586621;19;20010;-37
2022/11/07 09:54:38;;;;;;;23.38;16.35;;;15.80;99.90;;;;;;4583649;19;20014;-35
2022/11/07 09:56:10;;;;;;;17.77;14.90;;;15.80;99.90;;;;;;4588724;19;20014;-36
2022/11/07 09:57:42;;;;;;;20.38;16.23;;;15.80;99.90;;;;;;4589048;19;20010;-35
2022/11/07 09:59:23;;;;;;;19.75;15.85;;;15.80;99.90;;;;;;4586529;19;20108;-35
2022/11/07 10:00:56;;;;;;;18.95;15.15;;;15.80;99.90;;;;;;4587758;19;20014;-36
2022/11/07 10:02:31;;;;;;;19.50;16.25;;;15.80;99.90;;;;;;4587955;19;20017;-35
2022/11/07 10:04:02;;;;;;;20.98;15.13;;;15.70;99.90;;;;;;4588439;19;20464;-35
2022/11/07 10:05:50;;;;;;;18.23;14.73;;;15.70;99.90;;;;;;4587942;19;20014;-35
2022/11/07 10:07:35;;;;;;;20.38;15.00;;;15.70;99.90;;;;;;4587914;19;20017;-36
2022/11/07 10:09:17;;;;;;;19.63;13.95;;;15.70;99.90;;;;;;4588495;19;20385;-34
2022/11/07 10:10:58;;;;;;;18.73;14.35;;;15.70;99.90;;;;;;4588124;19;20021;-36
2022/11/07 10:12:59;;;;;;;21.55;14.73;;;15.70;99.90;;;;;;4588942;19;20015;-35
2022/11/07 10:14:33;;;;;;;20.95;14.20;;;15.70;99.90;;;;;;4586651;19;20136;-36
2022/11/07 10:16:19;;;;;;;19.70;14.48;;;15.70;99.90;;;;;;4587832;19;20014;-35
2022/11/07 10:18:11;;;;;;;19.38;14.85;;;15.70;99.90;;;;;;4587906;19;20015;-36
2022/11/07 10:20:00;;;;;;;18.65;15.13;;;15.80;99.90;;;;;;4587156;19;20014;-35
2022/11/07 10:21:45;;;;;;;20.63;15.02;;;15.70;99.90;;;;;;4587495;19;20011;-36
2022/11/07 10:23:37;;;;;;;20.25;14.27;;;15.70;99.90;;;;;;4589144;19;20011;-35
2022/11/07 10:25:32;;;;;;;18.05;14.23;;;15.70;99.90;;;;;;4589264;19;20030;-35
2022/11/07 10:27:07;;;;;;;17.98;14.70;;;15.60;99.90;;;;;;4590237;19;20023;-35
2022/11/07 10:28:43;;;;;;;20.83;15.10;;;15.60;99.90;;;;;;4590264;19;20011;-35
2022/11/07 10:30:16;;;;;;;19.42;14.73;;;15.60;99.90;;;;;;4588820;19;20030;-35
2022/11/07 10:32:15;;;;;;;22.83;17.92;;;15.60;99.90;;;;;;4588546;19;20410;-35
2022/11/07 10:33:51;;;;;;;25.53;19.53;;;14.70;99.90;;;;;;4588899;19;20030;-35
2022/11/07 10:35:26;;;;;;;30.40;22.07;;;13.60;99.90;;;;;;4589966;19;20015;-35
2022/11/07 10:36:58;;;;;;;20.50;15.10;;;13.20;99.90;;;;;;4588953;19;20003;-35
2022/11/07 10:38:32;;;;;;;23.40;17.30;;;13.00;99.90;;;;;;4589355;19;20022;-34
2022/11/07 10:40:15;;;;;;;22.73;17.17;;;12.90;99.90;;;;;;4588823;19;20019;-34
2022/11/07 10:42:11;;;;;;;23.23;17.60;;;12.90;99.90;;;;;;4586707;19;20404;-34
2022/11/07 11:01:57;;;;;;;21.30;16.13;;;12.90;99.90;;;;;;4587513;19;20003;-34
2022/11/07 11:03:40;;;;;;;22.33;17.37;;;12.90;99.90;;;;;;4589076;19;20441;-34
2022/11/07 11:05:34;;;;;;;21.55;17.27;;;12.90;99.90;;;;;;4589816;19;20015;-34
2022/11/07 11:07:09;;;;;;;21.93;16.83;;;12.90;99.90;;;;;;4589809;19;20010;-34
2022/11/07 11:08:42;;;;;;;21.23;16.77;;;12.90;99.90;;;;;;4588353;19;20516;-34
2022/11/07 11:11:09;;;;;;;21.93;16.70;;;12.90;99.90;;;;;;4587981;19;20472;-34
2022/11/07 11:12:44;;;;;;;25.13;18.07;;;12.90;99.90;;;;;;4589153;19;20007;-34
2022/11/07 11:14:19;;;;;;;19.53;15.83;;;12.90;99.90;;;;;;4587666;19;20015;-34
2022/11/07 11:30:17;;;;;;;21.07;15.63;;;13.10;99.90;;;;;;4588248;19;19998;-34
2022/11/07 11:31:50;;;;;;;17.97;14.77;;;13.10;99.90;;;;;;4587014;19;20074;-34
2022/11/07 11:33:25;;;;;;;20.17;15.07;;;13.10;99.90;;;;;;4590761;19;20007;-34
2022/11/07 11:35:14;;;;;;;19.00;13.93;;;13.10;99.90;;;;;;4591069;19;20011;-34
2022/11/07 11:37:00;;;;;;;17.07;13.50;;;13.10;99.90;;;;;;4590658;19;20494;-34
2022/11/07 11:38:38;;;;;;;19.13;14.23;;;13.10;99.90;;;;;;4593168;19;20021;-34
2022/11/07 11:40:20;;;;;;;20.53;14.47;;;13.10;99.90;;;;;;4593830;19;20382;-34
2022/11/07 11:41:55;;;;;;;26.60;19.30;;;13.10;99.90;;;;;;4593383;19;20019;-35
2022/11/07 11:43:37;;;;;;;23.40;16.93;;;13.10;99.90;;;;;;4593386;19;20430;-35
2022/11/07 11:45:15;;;;;;;21.70;16.43;;;13.10;99.90;;;;;;4591329;19;20552;-35
2022/11/07 11:46:52;;;;;;;19.63;16.13;;;13.10;99.90;;;;;;4592565;19;20034;-34
2022/11/07 11:48:24;;;;;;;19.77;14.70;;;13.10;99.90;;;;;;4593449;19;20014;-34
2022/11/07 11:49:59;;;;;;;21.30;15.73;;;13.10;99.90;;;;;;4593265;19;20015;-34
2022/11/07 11:51:41;;;;;;;18.50;14.50;;;13.10;99.90;;;;;;4591948;19;20018;-34
2022/11/07 11:53:15;;;;;;;20.53;15.30;;;13.10;99.90;;;;;;4593097;19;20317;-34
2022/11/07 11:54:47;;;;;;;18.80;15.47;;;13.10;99.90;;;;;;4590170;19;20444;-34
2022/11/07 11:56:32;;;;;;;18.07;14.57;;;13.10;99.90;;;;;;4592395;19;20010;-34
2022/11/07 11:58:17;;;;;;;19.47;14.63;;;13.10;99.90;;;;;;4592433;19;20003;-34
2022/11/07 11:59:52;;;;;;;20.97;14.43;;;13.10;99.90;;;;;;4593306;19;20014;-35
2022/11/07 12:01:40;;;;;;;19.03;14.50;;;13.10;99.90;;;;;;4592962;19;20010;-35
2022/11/07 12:03:33;;;;;;;18.77;14.73;;;13.10;99.90;;;;;;4591432;19;20014;-34
2022/11/07 12:05:28;;;;;;;19.60;14.77;;;13.10;99.90;;;;;;4592633;19;20361;-34
2022/11/07 12:07:16;;;;;;;17.60;14.03;;;13.10;99.90;;;;;;4591728;19;20477;-34
2022/11/07 12:08:56;;;;;;;20.57;14.50;;;13.10;99.90;;;;;;4591454;19;20025;-35
2022/11/07 12:10:42;;;;;;;18.23;14.17;;;13.00;99.90;;;;;;4592270;19;20058;-34
2022/11/07 12:12:56;;;;;;;17.33;13.60;;;13.10;99.90;;;;;;4591196;19;20488;-34
2022/11/07 12:14:40;;;;;;;17.20;14.77;;;13.10;99.90;;;;;;4589639;19;20015;-34
2022/11/07 12:16:48;;;;;;;18.20;15.13;;;13.10;99.90;;;;;;4590592;19;20405;-34
2022/11/07 12:18:29;;;;;;;20.70;14.17;;;13.10;99.90;;;;;;4590043;19;20410;-34
2022/11/07 12:20:32;;;;;;;17.40;14.33;;;13.10;99.90;;;;;;4590061;19;20024;-34
2022/11/07 12:22:43;;;;;;;18.73;14.73;;;13.10;99.90;;;;;;4590094;19;20021;-34
2022/11/07 12:24:20;;;;;;;18.13;13.67;;;13.10;99.90;;;;;;4590279;19;20109;-34
2022/11/07 12:25:55;;;;;;;17.03;13.13;;;13.10;99.90;;;;;;4590165;19;20009;-34
2022/11/07 12:27:53;;;;;;;19.17;14.60;;;13.10;99.90;;;;;;4590550;19;20027;-34
2022/11/07 12:29:42;;;;;;;23.50;15.03;;;13.10;99.90;;;;;;4590191;19;20015;-34
2022/11/07 12:34:55;;;;;;;22.13;17.37;;;13.10;99.90;;;;;;4589073;19;20587;-34
2022/11/07 12:36:46;;;;;;;20.43;17.23;;;13.10;99.90;;;;;;4588036;19;21064;-35
2022/11/07 12:38:29;;;;;;;21.13;16.00;;;13.10;99.90;;;;;;4588677;19;20893;-34
2022/11/07 12:40:12;;;;;;;20.93;15.97;;;13.00;99.90;;;;;;4589172;19;20501;-34
2022/11/07 12:42:16;;;;;;;20.17;16.20;;;13.10;99.90;;;;;;4588474;19;20586;-34
2022/11/07 12:44:17;;;;;;;19.10;14.27;;;13.10;99.90;;;;;;4587723;19;20384;-34
2022/11/07 12:46:07;;;;;;;20.00;13.80;;;13.10;99.90;;;;;;4588381;19;20580;-34
2022/11/07 12:48:08;;;;;;;19.53;15.93;;;13.10;99.90;;;;;;4585728;19;20480;-35
2022/11/07 12:50:20;;;;;;;23.00;16.83;;;13.00;99.90;;;;;;4588995;19;20487;-34
2022/11/07 12:52:35;;;;;;;19.57;15.77;;;13.10;99.90;;;;;;4611223;19;24479;-34
2022/11/07 12:54:25;;;;;;;19.07;14.50;;;13.00;99.90;;;;;;4611392;19;20575;-34
2022/11/07 12:56:12;;;;;;;19.67;14.93;;;13.00;99.90;;;;;;4611785;19;20444;-34
2022/11/07 12:57:43;;;;;;;18.27;14.63;;;13.00;99.90;;;;;;4610866;19;20432;-34
2022/11/07 12:59:26;;;;;;;19.27;16.07;;;13.10;99.90;;;;;;4611116;19;21082;-34
2022/11/07 13:00:57;;;;;;;21.23;15.10;;;13.00;99.90;;;;;;4610672;19;20397;-34
2022/11/07 13:02:37;;;;;;;19.43;15.00;;;13.00;99.90;;;;;;4610526;19;20798;-34
2022/11/07 13:04:21;;;;;;;18.00;14.70;;;13.00;99.90;;;;;;4610627;19;20467;-34
2022/11/07 13:06:14;;;;;;;18.87;14.47;;;13.00;99.90;;;;;;4609734;19;20052;-34
2022/11/07 13:07:49;;;;;;;19.80;14.87;;;13.10;99.90;;;;;;4610811;19;21050;-34
2022/11/07 13:09:34;;;;;;;16.60;13.70;;;13.00;99.90;;;;;;4609925;19;20415;-34
2022/11/07 13:11:14;;;;;;;18.87;14.93;;;13.00;99.90;;;;;;4608901;19;21051;-33
2022/11/07 13:12:59;;;;;;;19.20;14.63;;;13.10;99.90;;;;;;4611565;19;20460;-34
2022/11/07 13:14:32;;;;;;;19.37;14.87;;;13.10;99.90;;;;;;4610292;19;20512;-34
2022/11/07 13:16:25;;;;;;;19.33;15.30;;;13.00;99.90;;;;;;4611045;19;20432;-34
2022/11/07 13:17:57;;;;;;;19.33;14.70;;;13.10;99.90;;;;;;4609641;19;20551;-34
2022/11/07 13:19:42;;;;;;;22.13;16.48;;;13.00;99.90;;;;;;4609485;19;20436;-34
2022/11/07 13:21:14;;;;;;;22.53;17.40;;;13.00;99.90;;;;;;4609096;19;20014;-34
2022/11/07 13:22:56;;;;;;;20.13;17.23;;;13.10;99.90;;;;;;4609613;19;20488;-34
2022/11/07 13:24:28;;;;;;;20.38;16.00;;;13.10;99.90;;;;;;4609603;19;20118;-33
2022/11/07 13:26:00;;;;;;;21.33;15.67;;;13.00;99.90;;;;;;4609537;19;20019;-34
2022/11/07 13:30:34;;;;;;;18.35;14.45;;;13.10;99.90;;;;;;4609739;19;20429;-34
2022/11/07 13:32:08;;;;;;;17.20;13.33;;;13.10;99.90;;;;;;4609636;19;20468;-34
2022/11/07 13:33:40;;;;;;;17.07;14.17;;;13.00;99.90;;;;;;4609135;19;20507;-34
2022/11/07 13:38:49;;;;;;;19.23;14.60;;;13.10;99.90;;;;;;4608110;19;20535;-34
2022/11/07 13:40:27;;;;;;;17.93;13.83;;;13.00;99.90;;;;;;4609444;19;20424;-33
2022/11/07 13:41:58;;;;;;;18.57;13.27;;;13.10;99.90;;;;;;4608793;19;20449;-34
2022/11/07 13:43:53;;;;;;;18.37;14.30;;;13.00;99.90;;;;;;4609238;19;20592;-33
2022/11/07 13:45:35;;;;;;;19.20;14.90;;;13.10;99.90;;;;;;4608862;19;20033;-34
2022/11/07 13:47:09;;;;;;;;;;;13.10;99.90;;;;;;4610413;19;20887;-34
2022/11/07 13:48:42;;;;;;;20.77;14.73;;;13.00;99.90;;;;;;4608622;19;20042;-34
2022/11/07 13:50:22;;;;;;;20.10;16.03;;;13.00;99.90;;;;;;4608748;19;20498;-34
2022/11/07 13:51:55;;;;;;;19.63;14.50;;;13.00;99.90;;;;;;4606942;19;20468;-34
2022/11/07 13:59:11;;;;;;;19.87;14.93;;;13.00;99.90;;;;;;4607794;19;20412;-35
2022/11/07 14:00:43;;;;;;;24.77;20.23;;;13.00;99.90;;;;;;4608871;19;20563;-34
2022/11/07 14:02:21;;;;;;;26.83;20.80;;;13.00;99.90;;;;;;4606170;19;20009;-34
2022/11/07 14:03:53;;;;;;;20.97;17.53;;;13.00;99.90;;;;;;4590984;19;20095;-34
2022/11/07 14:05:29;;;;;;;19.10;15.93;;;13.00;99.90;;;;;;4591586;19;20428;-34
2022/11/07 14:07:00;;;;;;;19.37;16.33;;;13.00;99.90;;;;;;4590947;19;20409;-34
2022/11/07 14:08:53;;;;;;;18.43;13.57;;;13.00;99.90;;;;;;4591366;19;20447;-35
2022/11/07 14:10:32;;;;;;;17.17;11.53;;;13.00;99.90;;;;;;4590810;19;20456;-34
2022/11/07 14:12:05;;;;;;;15.40;13.23;;;13.00;99.90;;;;;;4590836;19;20475;-34
2022/11/07 14:13:37;;;;;;;15.10;12.60;;;13.00;99.90;;;;;;4591382;19;20425;-34
2022/11/07 14:15:13;;;;;;;14.57;11.30;;;13.00;99.90;;;;;;4590936;19;20531;-34
2022/11/07 14:17:03;;;;;;;13.43;10.37;;;13.00;99.90;;;;;;4590028;19;20453;-34
2022/11/07 14:18:42;;;;;;;15.30;10.83;;;13.00;99.90;;;;;;4590844;19;20108;-34
2022/11/07 14:20:15;;;;;;;14.10;9.80;;;13.00;99.90;;;;;;4590503;19;20479;-35
2022/11/07 14:21:46;;;;;;;15.17;11.67;;;13.00;99.90;;;;;;4590590;19;21132;-34
2022/11/07 14:23:20;;;;;;;15.03;11.50;;;13.00;99.90;;;;;;4590789;19;20011;-35
2022/11/07 14:24:55;;;;;;;15.73;13.07;;;13.00;99.90;;;;;;4590978;19;20463;-34
2022/11/07 14:26:31;;;;;;;12.90;11.50;;;13.00;99.90;;;;;;4590621;19;20476;-34
2022/11/07 14:28:06;;;;;;;12.83;10.77;;;13.00;99.90;;;;;;4590683;19;20425;-35
2022/11/07 14:29:37;;;;;;;14.63;11.67;;;13.00;99.90;;;;;;4590431;19;20842;-35
2022/11/07 14:31:35;;;;;;;12.90;10.35;;;13.00;99.90;;;;;;4590155;19;20505;-34
2022/11/07 14:33:15;;;;;;;13.93;10.90;;;13.00;99.90;;;;;;4589885;19;20029;-34
2022/11/07 14:34:48;;;;;;;16.90;11.37;;;13.00;99.90;;;;;;4590920;19;20993;-34
2022/11/07 14:36:19;;;;;;;14.13;11.37;;;13.00;99.90;;;;;;4591147;19;20533;-34
2022/11/07 16:29:43;;;;;;;14.80;12.00;;;13.30;99.90;;;;;;4588026;19;20106;-35
2022/11/07 16:31:31;;;;;;;14.87;12.00;;;12.90;99.90;;;;;;4588880;19;21012;-35
2022/11/07 16:33:02;;;;;;;18.33;13.10;;;12.70;99.90;;;;;;4590586;19;20445;-35
2022/11/07 16:34:35;;;;;;;16.27;13.10;;;12.70;99.90;;;;;;4590172;19;20791;-34
2022/11/07 16:36:27;;;;;;;;;;;12.60;99.90;;;;;;4591490;19;20623;-34
2022/11/07 16:37:58;;;;;;;16.37;12.57;;;12.60;99.90;;;;;;4588939;19;19918;-34
2022/11/07 16:39:30;;;;;;;18.33;12.73;;;12.60;99.90;;;;;;4591049;19;20461;-34
2022/11/07 16:41:01;;;;;;;15.82;11.43;;;13.00;99.90;;;;;;4590666;19;20017;-34
2022/11/07 16:47:04;;;;;;;16.37;11.30;;;14.30;99.90;;;;;;4577909;19;20024;-35
2022/11/07 16:48:35;;;;;;;15.60;10.18;;;14.40;99.90;;;;;;4589284;19;20011;-34
2022/11/07 16:50:06;;;;;;;18.27;11.32;;;14.50;99.90;;;;;;4589929;19;20094;-34
2022/11/07 16:51:37;;;;;;;16.30;11.20;;;14.60;99.90;;;;;;4588979;19;20027;-35
2022/11/07 16:53:12;;;;;;;16.83;12.33;;;14.70;99.90;;;;;;4589494;19;20011;-34
2022/11/07 16:54:58;;;;;;;16.87;11.70;;;14.70;99.90;;;;;;4589266;19;20006;-34
2022/11/07 16:56:31;;;;;;;18.60;13.47;;;14.80;99.90;;;;;;4589969;19;20354;-34
2022/11/07 16:58:02;;;;;;;18.77;14.07;;;14.80;99.90;;;;;;4588268;19;20014;-34
2022/11/07 16:59:33;;;;;;;17.77;12.20;;;14.90;99.90;;;;;;4588919;19;20015;-34
2022/11/07 17:01:04;;;;;;;17.83;12.43;;;14.80;99.90;;;;;;4590015;19;20025;-36
2022/11/07 17:02:36;;;;;;;16.90;12.27;;;14.90;99.90;;;;;;4587665;19;20011;-34
2022/11/07 17:04:07;;;;;;;19.40;12.32;;;14.90;99.90;;;;;;4590080;19;20360;-35
2022/11/07 17:05:40;;;;;;;24.50;12.90;;;14.90;99.90;;;;;;4589772;19;20010;-36
2022/11/07 17:07:12;;;;;;;19.33;11.05;;;15.00;99.90;;;;;;4588559;19;20357;-35
2022/11/07 17:08:44;;;;;;;15.38;11.82;;;15.00;99.90;;;;;;4589847;19;20022;-36
2022/11/07 17:10:15;;;;;;;16.50;11.43;;;15.00;99.90;;;;;;4589933;19;20011;-34
2022/11/07 17:11:46;;;;;;;15.60;10.90;;;15.00;99.90;;;;;;4589156;19;20078;-36
2022/11/07 17:13:18;;;;;;;16.98;10.60;;;15.10;99.90;;;;;;4589707;19;20022;-35